Time;durP1;ratioP1;P1;durP2;ratioP2;P2;SDS_P1;SDS_P2;PMS_P1;PMS_P2;Temp;Humidity;BMP_temperature;BMP_pressure;BME280_temperature;BME280_humidity;BME280_pressure;Samples;Min_cycle;Max_cycle;Signal;HPM_P1;HPM_P2
2023/07/14 00:00:40;;;;;;;2.50;1.92;;;19.50;99.90;;;;;;5023858;28;20213;-73
2023/07/14 00:03:06;;;;;;;2.90;1.90;;;19.40;99.90;;;;;;5001008;28;20212;-73
2023/07/14 00:05:38;;;;;;;2.15;1.98;;;19.40;99.90;;;;;;4999913;28;20213;-72
2023/07/14 00:08:05;;;;;;;3.72;1.95;;;19.40;99.90;;;;;;5020380;28;20238;-72
2023/07/14 00:10:33;;;;;;;3.10;2.03;;;19.30;99.90;;;;;;5000505;28;20245;-73
2023/07/14 00:13:02;;;;;;;2.28;2.00;;;19.30;99.90;;;;;;5009449;28;20216;-73
2023/07/14 00:15:29;;;;;;;4.53;1.75;;;19.30;99.90;;;;;;5001754;28;20201;-73
2023/07/14 00:17:59;;;;;;;3.28;2.10;;;19.20;99.90;;;;;;4996236;28;20221;-73
2023/07/14 00:20:29;;;;;;;4.18;2.08;;;19.20;99.90;;;;;;4998807;28;20879;-73
2023/07/14 00:22:56;;;;;;;2.92;1.80;;;19.20;99.90;;;;;;5001041;28;20193;-75
2023/07/14 00:25:24;;;;;;;2.25;1.80;;;19.30;99.90;;;;;;5009247;28;20217;-73
2023/07/14 00:27:51;;;;;;;2.90;2.15;;;19.20;99.90;;;;;;5002674;28;20235;-73
2023/07/14 00:30:23;;;;;;;1.70;1.60;;;19.10;99.90;;;;;;5001916;28;20591;-72
2023/07/14 00:32:51;;;;;;;2.75;2.10;;;19.10;99.90;;;;;;4998609;28;20696;-72
2023/07/14 00:35:27;;;;;;;5.07;2.40;;;19.10;99.90;;;;;;4998122;28;20244;-73
2023/07/14 00:37:57;;;;;;;3.70;2.30;;;19.10;99.90;;;;;;5002856;28;20192;-74
2023/07/14 00:40:36;;;;;;;3.05;2.00;;;19.10;99.90;;;;;;5007564;28;20271;-73
2023/07/14 00:43:02;;;;;;;2.42;1.83;;;19.10;99.90;;;;;;4999302;28;20212;-73
2023/07/14 00:45:31;;;;;;;3.13;1.90;;;19.10;99.90;;;;;;4998617;28;20726;-73
2023/07/14 00:48:03;;;;;;;2.85;2.40;;;19.00;99.90;;;;;;5001905;28;20217;-74
2023/07/14 00:50:29;;;;;;;3.38;1.98;;;19.00;99.90;;;;;;5002313;28;20219;-73
2023/07/14 00:52:58;;;;;;;12.02;2.08;;;18.90;99.90;;;;;;4999378;28;20724;-73
2023/07/14 00:55:24;;;;;;;2.13;1.92;;;18.90;99.90;;;;;;5001635;28;20292;-74
2023/07/14 00:57:53;;;;;;;3.05;1.98;;;18.90;99.90;;;;;;4998514;28;20264;-73
2023/07/14 01:00:30;;;;;;;3.88;2.25;;;18.90;99.90;;;;;;5001028;28;20216;-73
2023/07/14 01:02:56;;;;;;;2.58;2.38;;;18.90;99.90;;;;;;4997327;28;20240;-73
2023/07/14 01:05:24;;;;;;;3.60;2.17;;;18.90;99.90;;;;;;5004361;28;20182;-73
2023/07/14 01:07:50;;;;;;;3.50;2.42;;;18.80;99.90;;;;;;5017198;28;20244;-73
2023/07/14 01:10:21;;;;;;;3.60;2.13;;;18.80;99.90;;;;;;5000425;28;20213;-73
2023/07/14 01:12:52;;;;;;;2.67;2.38;;;18.80;99.90;;;;;;4997990;28;20289;-74
2023/07/14 01:15:19;;;;;;;2.85;2.47;;;18.80;99.90;;;;;;4999947;28;20209;-74
2023/07/14 01:17:47;;;;;;;3.78;2.60;;;18.80;99.90;;;;;;4998407;28;20205;-73
2023/07/14 01:20:13;;;;;;;3.72;2.72;;;18.80;99.90;;;;;;5012750;28;20255;-73
2023/07/14 01:22:44;;;;;;;2.97;2.50;;;18.80;99.90;;;;;;4999693;28;20720;-73
2023/07/14 01:25:30;;;;;;;3.63;2.88;;;18.70;99.90;;;;;;5014752;28;20266;-73
2023/07/14 01:27:55;;;;;;;3.53;2.75;;;18.70;99.90;;;;;;4997757;28;20213;-73
2023/07/14 01:30:21;;;;;;;2.70;2.50;;;18.70;99.90;;;;;;4999870;28;20598;-73
2023/07/14 01:32:49;;;;;;;3.65;2.78;;;18.70;99.90;;;;;;5007820;28;20216;-73
2023/07/14 01:35:17;;;;;;;4.10;2.60;;;18.70;99.90;;;;;;4999033;28;20256;-73
2023/07/14 01:37:44;;;;;;;3.97;2.80;;;18.70;99.90;;;;;;5002164;28;20190;-73
2023/07/14 01:40:17;;;;;;;6.03;2.63;;;18.60;99.90;;;;;;5000159;28;20228;-72
2023/07/14 01:42:47;;;;;;;2.90;2.28;;;18.50;99.90;;;;;;5001409;28;20244;-74
2023/07/14 01:45:18;;;;;;;5.25;2.83;;;18.50;99.90;;;;;;4999471;28;20216;-73
2023/07/14 01:47:48;;;;;;;3.38;2.65;;;18.50;99.90;;;;;;4997749;28;20213;-72
2023/07/14 01:50:23;;;;;;;4.63;2.58;;;18.50;99.90;;;;;;5013885;28;20197;-73
2023/07/14 01:53:03;;;;;;;5.65;3.15;;;18.50;99.90;;;;;;4999114;28;20192;-73
2023/07/14 01:55:34;;;;;;;3.22;2.50;;;18.60;99.90;;;;;;4999743;28;20656;-73
2023/07/14 01:58:04;;;;;;;3.60;2.42;;;18.60;99.90;;;;;;5000544;28;20397;-73
2023/07/14 02:00:30;;;;;;;4.03;2.70;;;18.50;99.90;;;;;;4999461;28;21007;-73
2023/07/14 02:02:59;;;;;;;4.82;2.67;;;18.50;99.90;;;;;;5001352;28;20222;-73
2023/07/14 02:05:31;;;;;;;3.30;2.80;;;18.40;99.90;;;;;;5000157;28;20225;-74
2023/07/14 02:08:01;;;;;;;4.20;3.53;;;18.40;99.90;;;;;;4997922;28;20605;-73
2023/07/14 02:10:26;;;;;;;5.78;4.28;;;18.30;99.90;;;;;;5000130;28;20729;-72
2023/07/14 02:12:54;;;;;;;4.70;3.38;;;18.30;99.90;;;;;;4997047;28;20296;-72
2023/07/14 02:15:24;;;;;;;4.90;2.65;;;18.20;99.90;;;;;;5014132;28;20217;-72
2023/07/14 02:17:50;;;;;;;4.20;3.17;;;18.30;99.90;;;;;;4997095;28;20214;-73
2023/07/14 02:20:25;;;;;;;4.60;2.85;;;18.20;99.90;;;;;;4996215;28;20204;-73
2023/07/14 02:22:53;;;;;;;4.38;3.13;;;18.00;99.90;;;;;;4997827;28;20193;-74
2023/07/14 02:25:22;;;;;;;3.42;2.80;;;18.10;99.90;;;;;;4999710;28;20219;-72
2023/07/14 02:27:48;;;;;;;5.63;3.50;;;18.10;99.90;;;;;;4997496;28;20206;-72
2023/07/14 02:30:20;;;;;;;4.00;3.08;;;18.10;99.90;;;;;;4999886;28;20363;-72
2023/07/14 02:32:56;;;;;;;3.90;2.97;;;18.10;99.90;;;;;;4997758;28;20229;-73
2023/07/14 02:35:36;;;;;;;3.00;2.67;;;18.00;99.90;;;;;;4997425;28;20186;-73
2023/07/14 02:38:12;;;;;;;4.53;3.20;;;18.10;99.90;;;;;;5000757;28;20231;-73
2023/07/14 02:41:11;;;;;;;3.35;3.08;;;18.10;99.90;;;;;;5004211;28;20217;-73
2023/07/14 02:43:36;;;;;;;5.53;3.63;;;18.10;99.90;;;;;;5001164;28;20288;-73
2023/07/14 02:46:22;;;;;;;5.20;3.47;;;18.10;99.90;;;;;;4997217;28;20357;-73
2023/07/14 02:48:50;;;;;;;3.10;2.80;;;18.00;99.90;;;;;;5000366;28;20621;-73
2023/07/14 02:51:16;;;;;;;4.38;3.80;;;18.00;99.90;;;;;;5001845;28;20288;-73
2023/07/14 02:53:41;;;;;;;4.13;3.28;;;18.00;99.90;;;;;;4998601;28;20225;-73
2023/07/14 02:56:08;;;;;;;3.28;2.97;;;17.90;99.90;;;;;;4998048;28;20260;-73
2023/07/14 02:58:34;;;;;;;6.30;3.83;;;18.00;99.90;;;;;;4997216;28;20202;-73
2023/07/14 03:01:00;;;;;;;5.43;3.30;;;18.10;99.90;;;;;;4994752;28;20206;-73
2023/07/14 03:03:26;;;;;;;6.18;2.92;;;18.10;99.90;;;;;;5001238;28;20304;-72
2023/07/14 03:05:53;;;;;;;4.18;3.15;;;18.10;99.90;;;;;;4996104;28;20214;-73
2023/07/14 03:08:19;;;;;;;4.05;3.28;;;18.10;99.90;;;;;;4998274;28;20256;-73
2023/07/14 03:10:47;;;;;;;6.55;3.67;;;18.10;99.90;;;;;;4996968;28;20284;-73
2023/07/14 03:13:14;;;;;;;4.28;3.22;;;18.10;99.90;;;;;;5013823;28;20227;-73
2023/07/14 03:15:42;;;;;;;5.60;3.35;;;18.20;99.90;;;;;;4997856;28;20216;-73
2023/07/14 03:18:08;;;;;;;4.03;3.25;;;18.30;99.90;;;;;;4989894;28;20296;-73
2023/07/14 03:20:34;;;;;;;4.88;3.05;;;18.40;99.90;;;;;;4999258;28;20321;-73
2023/07/14 03:23:00;;;;;;;4.05;3.25;;;18.50;99.90;;;;;;4996485;28;20200;-73
2023/07/14 03:25:26;;;;;;;4.80;3.58;;;18.50;99.90;;;;;;4998179;28;20236;-74
2023/07/14 03:27:52;;;;;;;3.38;3.08;;;18.50;99.90;;;;;;5006872;28;20217;-73
2023/07/14 03:30:18;;;;;;;3.45;3.08;;;18.50;99.90;;;;;;5001610;28;20218;-75
2023/07/14 03:32:44;;;;;;;5.07;3.13;;;18.60;99.90;;;;;;5001291;28;20213;-73
2023/07/14 03:35:09;;;;;;;3.28;2.85;;;18.60;99.90;;;;;;5001755;28;20708;-74
2023/07/14 03:37:35;;;;;;;4.60;3.50;;;18.70;99.90;;;;;;5005293;28;20205;-73
2023/07/14 03:40:01;;;;;;;3.75;3.03;;;19.10;99.90;;;;;;4995791;28;20291;-73
2023/07/14 03:42:27;;;;;;;5.00;3.53;;;19.70;99.90;;;;;;4999621;28;20209;-73
2023/07/14 03:44:52;;;;;;;5.55;3.30;;;20.00;99.90;;;;;;5000481;28;20349;-73
2023/07/14 03:47:18;;;;;;;4.03;3.00;;;20.10;99.90;;;;;;5002050;28;20181;-73
2023/07/14 03:49:43;;;;;;;6.35;3.35;;;20.40;99.90;;;;;;4999677;28;20206;-73
2023/07/14 03:52:09;;;;;;;3.83;3.28;;;20.60;99.90;;;;;;5000120;28;20297;-73
2023/07/14 03:54:35;;;;;;;4.03;3.20;;;20.60;99.90;;;;;;4998895;28;20204;-73
2023/07/14 03:57:00;;;;;;;6.20;3.43;;;20.50;99.90;;;;;;4999845;28;20424;-74
2023/07/14 03:59:27;;;;;;;3.45;2.97;;;20.70;99.90;;;;;;5001622;28;20229;-73
2023/07/14 04:01:53;;;;;;;4.18;3.20;;;20.90;99.90;;;;;;4998136;28;20216;-74
2023/07/14 04:04:20;;;;;;;3.17;2.80;;;21.20;99.90;;;;;;5003228;28;20216;-73
2023/07/14 04:06:46;;;;;;;4.88;2.67;;;21.60;99.90;;;;;;4998932;28;20224;-73
2023/07/14 04:09:11;;;;;;;3.72;2.83;;;21.90;99.90;;;;;;5000630;28;20206;-73
2023/07/14 04:11:37;;;;;;;4.05;3.05;;;22.60;99.90;;;;;;4997499;28;20351;-73
2023/07/14 04:14:07;;;;;;;5.40;3.13;;;22.60;99.90;;;;;;5015476;28;20272;-73
2023/07/14 04:16:35;;;;;;;3.88;2.78;;;23.20;99.90;;;;;;5015211;28;20208;-73
2023/07/14 04:19:01;;;;;;;3.08;2.78;;;23.50;99.90;;;;;;4999797;28;20241;-74
2023/07/14 04:21:27;;;;;;;4.03;3.00;;;24.10;99.90;;;;;;5000722;28;20294;-73
2023/07/14 04:23:54;;;;;;;2.92;2.63;;;24.30;99.90;;;;;;4997084;28;20206;-74
2023/07/14 04:26:21;;;;;;;4.40;2.78;;;24.90;99.90;;;;;;4999545;28;20239;-74
2023/07/14 04:28:47;;;;;;;2.92;2.50;;;25.10;99.90;;;;;;5002193;28;20189;-73
2023/07/14 04:31:13;;;;;;;4.00;2.95;;;25.60;99.90;;;;;;4999676;28;20217;-74
2023/07/14 04:33:41;;;;;;;3.70;3.03;;;25.80;99.90;;;;;;4991608;28;20216;-73
2023/07/14 04:36:07;;;;;;;4.70;3.13;;;26.10;99.90;;;;;;4995359;28;20205;-73
2023/07/14 04:38:32;;;;;;;4.57;2.60;;;26.30;99.90;;;;;;4999283;28;20227;-74
2023/07/14 04:40:58;;;;;;;3.17;2.85;;;26.60;99.90;;;;;;4996365;28;20205;-74
2023/07/14 04:43:23;;;;;;;3.83;2.88;;;27.00;99.90;;;;;;5000783;28;20209;-74
2023/07/14 04:45:51;;;;;;;3.25;2.95;;;27.10;99.90;;;;;;4998043;28;20742;-73
2023/07/14 04:48:18;;;;;;;4.75;2.78;;;27.20;99.90;;;;;;4998393;28;20209;-74
2023/07/14 04:50:46;;;;;;;5.30;2.85;;;27.20;99.90;;;;;;5002608;28;20730;-74
2023/07/14 04:53:13;;;;;;;4.07;2.72;;;27.80;99.90;;;;;;5000797;28;20177;-74
2023/07/14 04:55:40;;;;;;;4.18;2.58;;;28.10;99.90;;;;;;4999567;28;20221;-74
2023/07/14 04:58:07;;;;;;;5.28;3.00;;;28.20;99.90;;;;;;4999779;28;20240;-73
2023/07/14 05:00:35;;;;;;;3.90;2.72;;;28.30;99.90;;;;;;5014475;28;20275;-73
2023/07/14 05:03:01;;;;;;;3.83;3.13;;;28.70;99.90;;;;;;5011639;28;20214;-74
2023/07/14 05:05:27;;;;;;;3.35;2.78;;;28.70;99.90;;;;;;5001028;28;20290;-74
2023/07/14 05:07:55;;;;;;;4.15;2.60;;;29.00;99.90;;;;;;5002898;28;20177;-74
2023/07/14 05:10:23;;;;;;;2.92;2.63;;;29.10;99.90;;;;;;4994810;28;20276;-73
2023/07/14 05:12:56;;;;;;;3.38;2.80;;;29.40;99.90;;;;;;4997982;28;20934;-74
2023/07/14 05:15:24;;;;;;;4.05;2.60;;;29.40;99.90;;;;;;5000562;28;20212;-74
2023/07/14 05:17:50;;;;;;;4.07;2.58;;;29.50;99.90;;;;;;5001842;28;20695;-74
2023/07/14 05:20:18;;;;;;;4.88;2.95;;;29.60;99.90;;;;;;4998792;28;20224;-74
2023/07/14 05:22:47;;;;;;;3.95;2.45;;;29.60;99.90;;;;;;5014066;28;20283;-74
2023/07/14 05:25:15;;;;;;;2.50;2.25;;;29.50;99.90;;;;;;4999151;28;20209;-74
2023/07/14 05:27:45;;;;;;;3.38;2.47;;;29.90;99.90;;;;;;4996921;28;20229;-74
2023/07/14 05:30:14;;;;;;;4.78;2.85;;;30.00;99.90;;;;;;5013339;28;20267;-74
2023/07/14 05:32:41;;;;;;;3.22;2.55;;;30.60;99.90;;;;;;4999911;28;20223;-74
2023/07/14 05:35:07;;;;;;;4.53;2.78;;;30.50;99.90;;;;;;4998103;28;20182;-74
2023/07/14 05:37:33;;;;;;;4.28;2.50;;;30.70;99.90;;;;;;5000668;28;20174;-74
2023/07/14 05:39:58;;;;;;;4.38;2.75;;;30.70;99.90;;;;;;5021195;28;20216;-74
2023/07/14 05:42:24;;;;;;;3.28;2.20;;;31.00;99.90;;;;;;5003111;28;20286;-74
2023/07/14 05:44:50;;;;;;;3.72;2.70;;;31.20;99.90;;;;;;4992488;28;20209;-72
2023/07/14 05:47:15;;;;;;;3.38;2.72;;;31.50;99.90;;;;;;5001620;28;20170;-73
2023/07/14 05:49:41;;;;;;;3.47;2.60;;;31.40;99.90;;;;;;5002032;28;20542;-73
2023/07/14 05:52:09;;;;;;;2.90;2.42;;;31.10;99.90;;;;;;4999640;28;20601;-72
2023/07/14 05:54:35;;;;;;;3.22;2.70;;;31.10;99.90;;;;;;4998498;28;20226;-72
2023/07/14 05:57:01;;;;;;;2.95;2.47;;;31.30;99.80;;;;;;4998550;28;20212;-72
2023/07/14 05:59:27;;;;;;;3.58;2.25;;;31.30;99.60;;;;;;5020232;28;20710;-72
2023/07/14 06:01:53;;;;;;;4.45;2.78;;;31.10;98.90;;;;;;5005619;28;20716;-72
2023/07/14 06:04:19;;;;;;;3.58;2.20;;;31.20;98.90;;;;;;5016007;28;20720;-74
2023/07/14 06:06:44;;;;;;;2.72;2.33;;;31.10;98.50;;;;;;5012948;28;20231;-73
2023/07/14 06:09:13;;;;;;;4.82;2.45;;;30.90;98.60;;;;;;4997994;28;20904;-73
2023/07/14 06:11:39;;;;;;;4.88;1.83;;;30.90;98.60;;;;;;4999508;28;20643;-73
2023/07/14 06:14:05;;;;;;;4.15;2.22;;;31.30;97.90;;;;;;4997736;28;20201;-73
2023/07/14 06:16:31;;;;;;;2.92;2.17;;;31.20;97.40;;;;;;5000691;28;20560;-73
2023/07/14 06:18:56;;;;;;;3.90;2.58;;;31.40;96.90;;;;;;4997109;28;20213;-76
2023/07/14 06:21:22;;;;;;;2.72;2.22;;;31.50;96.80;;;;;;4999804;28;20223;-73
2023/07/14 06:23:48;;;;;;;2.35;2.13;;;31.90;96.20;;;;;;4993632;28;20228;-73
2023/07/14 06:26:14;;;;;;;3.40;2.10;;;31.60;95.80;;;;;;4996518;28;20207;-74
2023/07/14 06:28:41;;;;;;;3.58;1.90;;;31.90;95.50;;;;;;4999267;28;20173;-73
2023/07/14 06:31:06;;;;;;;4.93;1.98;;;32.10;95.00;;;;;;5000712;28;20222;-73
2023/07/14 06:33:33;;;;;;;5.50;2.20;;;32.70;93.90;;;;;;4998868;28;20296;-76
2023/07/14 06:36:00;;;;;;;2.15;1.85;;;33.00;92.80;;;;;;4998404;28;20263;-73
2023/07/14 06:38:28;;;;;;;2.97;2.67;;;32.40;92.20;;;;;;4996061;28;20229;-73
2023/07/14 06:41:00;;;;;;;4.43;1.85;;;32.50;92.60;;;;;;5005743;28;20201;-73
2023/07/14 06:43:27;;;;;;;4.10;2.65;;;32.10;92.60;;;;;;4999984;28;20216;-73
2023/07/14 06:45:53;;;;;;;3.72;2.55;;;31.90;93.10;;;;;;4999430;28;20209;-73
2023/07/14 06:48:20;;;;;;;2.78;2.45;;;32.00;92.70;;;;;;4998003;28;20762;-73
2023/07/14 06:50:46;;;;;;;4.03;2.05;;;32.30;92.20;;;;;;4998358;28;20228;-73
2023/07/14 06:53:12;;;;;;;6.85;4.63;;;32.80;91.50;;;;;;5014235;28;20173;-74
2023/07/14 06:55:39;;;;;;;3.55;2.40;;;32.90;91.00;;;;;;5003115;28;20551;-73
2023/07/14 06:58:06;;;;;;;4.60;2.55;;;33.00;90.40;;;;;;5000732;28;20276;-73
2023/07/14 07:00:33;;;;;;;2.25;2.05;;;33.50;89.80;;;;;;5000865;28;20220;-73
2023/07/14 07:02:59;;;;;;;3.33;2.10;;;32.90;88.30;;;;;;5007326;28;20277;-73
2023/07/14 07:05:25;;;;;;;2.08;1.90;;;33.70;89.80;;;;;;4996778;28;20300;-73
2023/07/14 07:07:51;;;;;;;3.83;2.00;;;34.00;86.50;;;;;;5001857;28;20326;-73
2023/07/14 07:10:17;;;;;;;2.10;1.90;;;33.70;86.10;;;;;;5001441;28;20216;-73
2023/07/14 07:12:43;;;;;;;4.43;2.30;;;34.10;86.20;;;;;;5016896;28;20305;-73
2023/07/14 07:15:09;;;;;;;3.13;2.30;;;33.90;84.40;;;;;;5007764;28;20299;-73
2023/07/14 07:17:38;;;;;;;3.13;2.20;;;34.50;84.30;;;;;;5003706;28;20208;-74
2023/07/14 07:20:08;;;;;;;2.42;1.73;;;34.10;82.10;;;;;;4998401;28;20696;-75
2023/07/14 07:22:35;;;;;;;2.90;1.65;;;34.20;83.10;;;;;;5001478;28;20204;-74
2023/07/14 07:25:00;;;;;;;2.75;1.90;;;34.40;83.50;;;;;;5000223;28;20295;-74
2023/07/14 07:27:26;;;;;;;3.45;1.70;;;35.10;82.20;;;;;;5002525;28;20296;-74
2023/07/14 07:29:52;;;;;;;2.92;1.90;;;35.60;81.10;;;;;;4998838;28;20218;-74
2023/07/14 07:32:17;;;;;;;3.42;1.63;;;36.30;79.20;;;;;;4998274;28;20197;-74
2023/07/14 07:34:43;;;;;;;2.15;1.65;;;36.90;77.40;;;;;;5010461;28;20188;-73
2023/07/14 07:37:10;;;;;;;3.10;2.47;;;36.40;73.40;;;;;;4998735;28;20224;-73
2023/07/14 07:39:36;;;;;;;3.35;2.08;;;34.80;76.40;;;;;;4991770;28;20287;-73
2023/07/14 07:42:03;;;;;;;3.97;2.30;;;33.90;77.20;;;;;;4993574;28;20205;-73
2023/07/14 07:44:29;;;;;;;2.78;1.60;;;33.60;78.90;;;;;;4997218;28;20721;-73
2023/07/14 07:46:54;;;;;;;2.95;1.70;;;34.40;80.00;;;;;;5000854;28;20252;-73
2023/07/14 07:49:20;;;;;;;4.10;1.90;;;35.30;78.20;;;;;;5023121;28;20230;-73
2023/07/14 07:51:46;;;;;;;2.35;2.00;;;35.20;76.80;;;;;;5002948;28;20214;-73
2023/07/14 07:54:11;;;;;;;2.50;1.80;;;35.70;76.80;;;;;;4998042;28;20209;-73
2023/07/14 07:56:39;;;;;;;3.28;1.90;;;36.00;76.60;;;;;;5025946;28;20299;-74
2023/07/14 07:59:05;;;;;;;2.63;1.80;;;36.50;75.00;;;;;;5000484;28;20556;-73
2023/07/14 08:01:31;;;;;;;4.32;2.05;;;36.30;73.90;;;;;;5001347;28;20590;-72
2023/07/14 08:03:56;;;;;;;3.13;1.80;;;36.60;74.80;;;;;;5000464;28;20219;-73
2023/07/14 08:06:24;;;;;;;2.78;2.10;;;37.00;73.90;;;;;;5004748;28;20712;-73
2023/07/14 08:08:51;;;;;;;2.45;1.95;;;37.30;73.50;;;;;;5000957;28;20307;-73
2023/07/14 08:11:16;;;;;;;2.53;1.75;;;36.80;72.60;;;;;;5002878;28;20693;-73
2023/07/14 08:13:42;;;;;;;3.67;2.08;;;37.20;72.30;;;;;;4996441;28;20227;-73
2023/07/14 08:16:08;;;;;;;2.53;1.85;;;35.50;71.20;;;;;;5002243;28;20204;-73
2023/07/14 08:18:33;;;;;;;4.13;1.98;;;33.80;73.90;;;;;;4996159;28;20530;-73
2023/07/14 08:21:01;;;;;;;2.63;1.88;;;33.50;74.80;;;;;;5002087;28;20270;-73
2023/07/14 08:23:27;;;;;;;1.40;1.20;;;33.00;75.80;;;;;;4999151;28;20762;-74
2023/07/14 08:25:58;;;;;;;4.90;1.80;;;33.40;75.60;;;;;;5005689;28;20242;-73
2023/07/14 08:28:24;;;;;;;2.80;1.38;;;33.80;76.10;;;;;;4995035;28;20204;-73
2023/07/14 08:30:51;;;;;;;1.90;1.58;;;34.20;75.50;;;;;;5000668;28;20223;-73
2023/07/14 08:33:19;;;;;;;5.82;1.90;;;34.70;74.20;;;;;;4997712;28;20223;-74
2023/07/14 08:35:45;;;;;;;3.10;1.80;;;35.20;73.90;;;;;;5002282;28;20208;-73
2023/07/14 08:38:10;;;;;;;5.82;2.03;;;34.90;74.30;;;;;;4999196;28;20694;-74
2023/07/14 08:40:51;;;;;;;3.30;1.90;;;34.30;73.20;;;;;;5000075;28;20196;-73
2023/07/14 08:43:28;;;;;;;3.55;2.05;;;33.60;73.80;;;;;;5013203;28;20220;-73
2023/07/14 08:46:04;;;;;;;4.82;2.00;;;32.40;75.90;;;;;;4999736;28;20284;-73
2023/07/14 08:48:40;;;;;;;3.03;1.85;;;32.30;76.50;;;;;;5002285;28;20208;-73
2023/07/14 08:51:32;;;;;;;2.03;1.48;;;33.40;76.60;;;;;;4998260;28;20212;-73
2023/07/14 08:54:07;;;;;;;5.47;2.60;;;34.40;75.50;;;;;;4994927;28;20286;-73
2023/07/14 08:56:37;;;;;;;4.07;1.70;;;34.90;74.30;;;;;;5001044;28;20220;-74
2023/07/14 08:59:05;;;;;;;2.22;1.60;;;34.90;74.80;;;;;;5001356;28;20291;-73
2023/07/14 09:01:47;;;;;;;2.47;1.98;;;35.00;73.80;;;;;;4994729;28;20525;-74
2023/07/14 09:04:31;;;;;;;4.30;1.90;;;35.10;73.70;;;;;;5013490;28;20209;-73
2023/07/14 09:06:57;;;;;;;3.95;1.85;;;34.30;73.20;;;;;;4998402;28;20215;-73
2023/07/14 09:09:40;;;;;;;2.03;1.48;;;34.20;73.50;;;;;;4998102;28;20219;-73
2023/07/14 09:12:25;;;;;;;2.47;1.70;;;32.40;74.10;;;;;;4999217;28;20267;-73
2023/07/14 09:15:03;;;;;;;4.03;2.13;;;32.10;76.40;;;;;;4998805;28;20213;-73
2023/07/14 09:17:46;;;;;;;11.77;7.55;;;33.40;76.40;;;;;;4998814;28;20210;-73
2023/07/14 09:20:37;;;;;;;3.50;1.67;;;34.10;74.80;;;;;;5009211;28;20205;-74
2023/07/14 09:23:21;;;;;;;2.35;1.25;;;34.60;73.10;;;;;;4998570;28;20185;-73
2023/07/14 09:26:23;;;;;;;3.60;1.60;;;34.50;71.60;;;;;;4999121;28;20202;-73
2023/07/14 09:28:51;;;;;;;2.08;1.85;;;32.90;73.90;;;;;;4997507;28;20299;-74
2023/07/14 09:31:41;;;;;;;2.30;1.50;;;32.80;74.90;;;;;;4992173;28;20748;-74
2023/07/14 09:34:30;;;;;;;3.58;1.80;;;32.20;75.60;;;;;;5000622;28;20197;-74
2023/07/14 09:36:57;;;;;;;2.55;1.60;;;32.50;75.80;;;;;;4997581;28;20600;-74
2023/07/14 09:39:37;;;;;;;2.63;1.40;;;32.90;75.40;;;;;;4996066;28;20695;-74
2023/07/14 09:42:10;;;;;;;2.45;1.55;;;32.80;73.40;;;;;;4997435;28;20228;-74
2023/07/14 09:44:35;;;;;;;4.72;1.45;;;32.60;75.50;;;;;;4996595;28;20224;-74
2023/07/14 09:47:04;;;;;;;2.90;1.40;;;32.00;75.90;;;;;;4999412;28;20177;-74
2023/07/14 09:49:39;;;;;;;1.90;1.38;;;31.90;76.00;;;;;;4998555;28;20319;-74
2023/07/14 09:52:12;;;;;;;1.65;1.40;;;32.20;77.00;;;;;;4998557;28;20303;-74
2023/07/14 09:54:58;;;;;;;3.83;1.63;;;31.90;76.30;;;;;;4999454;28;20737;-74
2023/07/14 09:57:27;;;;;;;2.85;1.75;;;31.70;77.50;;;;;;4998213;28;20224;-74
2023/07/14 10:00:13;;;;;;;3.75;1.70;;;31.60;77.60;;;;;;5003733;28;20666;-74
2023/07/14 10:02:39;;;;;;;4.45;1.98;;;31.40;77.90;;;;;;4995925;28;20604;-75
2023/07/14 10:05:34;;;;;;;4.78;2.10;;;31.60;79.50;;;;;;4996441;28;20546;-75
2023/07/14 10:08:02;;;;;;;16.10;9.15;;;31.50;78.60;;;;;;4995498;28;20173;-74
2023/07/14 10:10:28;;;;;;;3.63;1.52;;;31.80;78.60;;;;;;4995071;28;20213;-74
2023/07/14 10:12:54;;;;;;;7.25;4.50;;;31.90;78.20;;;;;;5003018;28;20213;-74
2023/07/14 10:15:30;;;;;;;3.22;1.58;;;32.00;78.50;;;;;;4997645;28;20200;-74
2023/07/14 10:17:57;;;;;;;3.00;1.58;;;31.70;78.20;;;;;;5000151;28;20367;-74
2023/07/14 10:20:24;;;;;;;3.55;2.00;;;31.70;78.70;;;;;;5000445;28;20319;-74
2023/07/14 10:22:53;;;;;;;3.17;1.83;;;31.80;78.60;;;;;;4998245;28;20189;-73
2023/07/14 10:25:20;;;;;;;3.65;1.95;;;31.50;79.60;;;;;;5004263;28;20250;-74
2023/07/14 10:28:03;;;;;;;1.95;1.67;;;31.30;79.10;;;;;;5000473;28;21043;-74
2023/07/14 10:30:29;;;;;;;3.53;1.63;;;30.90;80.10;;;;;;5002636;28;20209;-74
2023/07/14 10:32:59;;;;;;;2.50;1.52;;;30.60;79.90;;;;;;5000040;28;20281;-74
2023/07/14 10:35:31;;;;;;;2.00;1.55;;;30.60;78.70;;;;;;4997202;28;20209;-74
2023/07/14 10:38:00;;;;;;;3.88;1.85;;;30.80;80.00;;;;;;5002848;28;20170;-74
2023/07/14 10:40:37;;;;;;;2.38;1.63;;;31.20;78.50;;;;;;5000442;28;20216;-74
2023/07/14 10:43:27;;;;;;;4.57;1.58;;;30.80;78.70;;;;;;4999039;28;20263;-74
2023/07/14 10:46:01;;;;;;;2.13;1.33;;;30.90;80.00;;;;;;4997673;28;20680;-74
2023/07/14 10:48:34;;;;;;;3.03;1.80;;;31.00;79.40;;;;;;4997360;28;20201;-74
2023/07/14 10:51:22;;;;;;;4.18;1.90;;;31.00;78.40;;;;;;5000134;28;20244;-74
2023/07/14 10:53:56;;;;;;;3.47;1.60;;;31.10;79.80;;;;;;4995432;28;20219;-74
2023/07/14 10:56:26;;;;;;;3.22;1.95;;;31.20;79.00;;;;;;4999132;28;20216;-74
2023/07/14 10:59:01;;;;;;;2.40;1.92;;;31.30;78.60;;;;;;4997868;28;20567;-74
2023/07/14 11:02:00;;;;;;;3.10;2.13;;;30.90;78.50;;;;;;5001315;28;20247;-74
2023/07/14 11:04:31;;;;;;;2.67;1.98;;;29.90;78.30;;;;;;4987327;28;20289;-74
2023/07/14 11:06:58;;;;;;;3.45;1.80;;;29.40;80.90;;;;;;4994920;28;20208;-74
2023/07/14 11:09:24;;;;;;;4.28;2.10;;;29.40;81.90;;;;;;4996044;28;20715;-74
2023/07/14 11:11:59;;;;;;;3.97;2.10;;;29.90;82.50;;;;;;4999670;28;20286;-74
2023/07/14 11:14:42;;;;;;;3.28;1.70;;;30.10;82.00;;;;;;4996589;28;20288;-74
2023/07/14 11:17:16;;;;;;;3.08;1.95;;;30.10;81.00;;;;;;4996786;28;20680;-73
2023/07/14 11:20:03;;;;;;;3.53;2.50;;;29.90;80.90;;;;;;4997788;28;20240;-74
2023/07/14 11:22:47;;;;;;;4.03;2.20;;;29.10;81.40;;;;;;4997787;28;20247;-73
2023/07/14 11:25:20;;;;;;;2.97;1.80;;;29.90;82.90;;;;;;5000554;28;20212;-74
2023/07/14 11:27:59;;;;;;;5.38;3.13;;;30.20;81.90;;;;;;4994902;28;20214;-74
2023/07/14 11:30:34;;;;;;;4.25;2.10;;;30.50;81.70;;;;;;5016030;28;20209;-74
2023/07/14 11:33:14;;;;;;;2.78;1.85;;;30.70;80.20;;;;;;4993016;28;20719;-73
2023/07/14 11:35:52;;;;;;;2.58;1.75;;;30.20;80.10;;;;;;4994866;28;20217;-73
2023/07/14 11:38:20;;;;;;;3.22;2.22;;;29.40;81.20;;;;;;5011145;28;20211;-73
2023/07/14 11:40:48;;;;;;;1.83;1.50;;;29.30;82.30;;;;;;5000340;28;20296;-73
2023/07/14 11:43:20;;;;;;;3.95;2.10;;;29.20;82.50;;;;;;5007618;28;20208;-73
2023/07/14 11:45:56;;;;;;;3.58;2.20;;;29.30;82.70;;;;;;5001802;28;20213;-74
2023/07/14 11:48:25;;;;;;;3.70;2.63;;;29.70;81.30;;;;;;5003661;28;20205;-74
2023/07/14 11:51:15;;;;;;;2.88;2.45;;;29.40;80.50;;;;;;5003093;28;20212;-74
2023/07/14 11:54:03;;;;;;;6.05;2.70;;;28.60;81.00;;;;;;5003204;28;20217;-74
2023/07/14 11:56:35;;;;;;;2.90;2.28;;;28.50;81.50;;;;;;5000251;28;20591;-74
2023/07/14 11:59:34;;;;;;;5.38;2.65;;;28.80;81.20;;;;;;4997387;28;20205;-74
2023/07/14 12:02:28;;;;;;;3.67;2.50;;;28.10;82.50;;;;;;4960220;28;20233;-73
2023/07/14 12:05:24;;;;;;;3.53;2.30;;;27.90;84.10;;;;;;4996460;28;20216;-74
2023/07/14 12:08:04;;;;;;;3.42;2.13;;;28.00;83.90;;;;;;5000308;28;20217;-74
2023/07/14 12:10:40;;;;;;;4.10;2.60;;;27.70;83.30;;;;;;5006049;28;20209;-74
2023/07/14 12:13:25;;;;;;;3.45;2.33;;;27.10;84.90;;;;;;5000844;28;20221;-74
2023/07/14 12:15:57;;;;;;;3.17;2.22;;;27.20;85.40;;;;;;5000967;28;20225;-75
2023/07/14 12:18:36;;;;;;;2.70;2.13;;;27.30;85.60;;;;;;5004288;28;20299;-77
2023/07/14 12:21:14;;;;;;;4.07;2.30;;;27.20;85.50;;;;;;5002489;28;20290;-79
2023/07/14 12:23:41;;;;;;;4.40;2.85;;;27.50;86.20;;;;;;4999220;28;20695;-77
2023/07/14 12:26:14;;;;;;;4.22;2.72;;;27.70;83.40;;;;;;5004873;28;20181;-76
2023/07/14 12:28:40;;;;;;;3.53;2.47;;;27.20;83.80;;;;;;5000017;28;20659;-74
2023/07/14 12:31:14;;;;;;;3.25;2.95;;;27.50;84.30;;;;;;5003461;28;20228;-75
2023/07/14 12:33:40;;;;;;;3.65;2.88;;;28.00;84.80;;;;;;5019518;28;20593;-74
2023/07/14 12:36:16;;;;;;;3.92;3.15;;;28.50;83.60;;;;;;4998538;28;20219;-76
2023/07/14 12:38:47;;;;;;;3.95;2.50;;;28.60;81.70;;;;;;5002215;28;20209;-76
2023/07/14 12:41:14;;;;;;;5.90;2.70;;;28.10;81.30;;;;;;5004586;28;20193;-75
2023/07/14 12:43:46;;;;;;;4.20;3.08;;;28.10;82.00;;;;;;5001262;28;20200;-75
2023/07/14 12:46:22;;;;;;;4.32;2.90;;;27.90;81.60;;;;;;5019411;28;20217;-78
2023/07/14 12:48:49;;;;;;;4.35;2.75;;;27.50;81.50;;;;;;4999592;28;20237;-76
2023/07/14 12:51:21;;;;;;;4.05;2.97;;;27.80;82.10;;;;;;5004907;28;20216;-77
2023/07/14 12:54:04;;;;;;;3.60;2.85;;;28.10;83.00;;;;;;5003351;28;20288;-76
2023/07/14 12:56:31;;;;;;;4.45;2.72;;;28.50;82.40;;;;;;5006415;28;20204;-75
2023/07/14 12:59:01;;;;;;;6.60;3.30;;;28.80;82.10;;;;;;5006876;28;20583;-77
2023/07/14 13:01:27;;;;;;;6.25;3.30;;;29.10;81.70;;;;;;5005855;28;20216;-75